Maizuru Bishamon — 7JHP — position and weather

sailwx.info

Track history (hours):
 
Tides and Currents Weather Stations Pressure Air Temp Water Temp Dewpoint Dewpoint Depression Visibility Wind Speed Wind Dir Waves Ship Positions

Maizuru Bishamon

Last reported at 2018-Jun-22 22:34 UTC. Time now 2018-Jun-23 02:39 UTC.
Position N 31°09' E 121°54'.

Length 229 m; draft 7 m.

Type: Cargo ship. MMSI: 432772000.

Date/timePositionNaut miles runAvg speedWind from/ knotsBaromVisibWave heightAir tempDewpointWater temp
2018-Jun-22 22:34N 31°09' E 121°54'115.6
2018-Jun-22 22:30N 31°08' E 121°55'714.6
2018-Jun-22 22:00N 31°05' E 122°02'714.6
2018-Jun-22 21:30N 31°03' E 122°10'4 8.5
2018-Jun-22 21:00N 31°03' E 122°15'5 9.6
2018-Jun-22 20:30N 31°02' E 122°21'4 7.7
2018-Jun-22 19:56N 31°01' E 122°26'  
2018-Jun-19 10:49N 33°51' E 134°55'410.8
2018-Jun-19 10:27N 33°55' E 134°55'511.0
2018-Jun-19 10:00N 34°00' E 134°56'611.4
2018-Jun-19 09:30N 34°06' E 134°57'611.8
2018-Jun-19 09:00N 34°12' E 134°57'510.8
2018-Jun-19 08:30N 34°17' E 134°58'714.6
2018-Jun-19 08:00N 34°24' E 135°01'714.3
2018-Jun-19 07:30N 34°30' E 135°05'4 8.2
2018-Jun-19 07:00N 34°34' E 135°07'611.7
2018-Jun-19 06:30N 34°37' E 135°01'713.5
2018-Jun-19 06:00N 34°35' E 134°53'612.5
2018-Jun-19 05:30N 34°32' E 134°46'612.2
2018-Jun-19 05:00N 34°30' E 134°39'714.1
2018-Jun-19 04:30N 34°27' E 134°31'714.0
2018-Jun-19 04:01N 34°24' E 134°24'713.6
2018-Jun-19 03:30N 34°23' E 134°15'  
2018-Jun-14 22:33N 34°25' E 134°21'0 9.6
2018-Jun-14 22:30N 34°25' E 134°22'5 9.8
2018-Jun-14 21:56N 34°27' E 134°28'4 8.4
2018-Jun-14 21:31N 34°28' E 134°32'3 6.6
2018-Jun-14 21:00N 34°30' E 134°36'4 8.1
2018-Jun-14 20:31N 34°31' E 134°40'611.1
2018-Jun-14 19:57N 34°33' E 134°47'511.4
2018-Jun-14 19:30N 34°35' E 134°53'510.8
2018-Jun-14 19:00N 34°37' E 134°59'4 8.6
2018-Jun-14 18:31N 34°36' E 135°04'4 7.5
2018-Jun-14 18:01N 34°34' E 135°07'5 9.3
2018-Jun-14 17:30N 34°29' E 135°06'612.2
2018-Jun-14 17:01N 34°24' E 135°03'612.0
2018-Jun-14 16:31N 34°18' E 134°60'611.6
2018-Jun-14 16:01N 34°12' E 134°59'5 9.7
2018-Jun-14 15:31N 34°08' E 134°59'510.7
2018-Jun-14 15:01N 34°02' E 134°59'2 4.4
2018-Jun-14 14:30N 34°00' E 134°59'2 4.8
2018-Jun-14 14:00N 33°58' E 134°58'4 8.3
2018-Jun-14 13:31N 33°54' E 134°58'4 8.5
2018-Jun-14 13:01N 33°49' E 134°58'5 9.0
2018-Jun-14 12:28N 33°45' E 134°58'5 9.0
2018-Jun-14 11:58N 33°40' E 134°58'  
Track history (hours):
 
Tides and Currents Weather Stations Pressure Air Temp Water Temp Dewpoint Dewpoint Depression Visibility Wind Speed Wind Dir Waves Ship Positions

Maizuru Bishamon

Last reported at 2018-Jun-22 22:34 UTC. Time now 2018-Jun-23 02:39 UTC.
Position N 31°09' E 121°54'.

Length 229 m; draft 7 m.

Type: Cargo ship. MMSI: 432772000.

Date/timePositionNaut miles runAvg speedWind from/ knotsBaromVisibWave heightAir tempDewpointWater temp
2018-Jun-22 22:34N 31°09' E 121°54'115.6
2018-Jun-22 22:30N 31°08' E 121°55'714.6
2018-Jun-22 22:00N 31°05' E 122°02'714.6
2018-Jun-22 21:30N 31°03' E 122°10'4 8.5
2018-Jun-22 21:00N 31°03' E 122°15'5 9.6
2018-Jun-22 20:30N 31°02' E 122°21'4 7.7
2018-Jun-22 19:56N 31°01' E 122°26'  
2018-Jun-19 10:49N 33°51' E 134°55'410.8
2018-Jun-19 10:27N 33°55' E 134°55'511.0
2018-Jun-19 10:00N 34°00' E 134°56'611.4
2018-Jun-19 09:30N 34°06' E 134°57'611.8
2018-Jun-19 09:00N 34°12' E 134°57'510.8
2018-Jun-19 08:30N 34°17' E 134°58'714.6
2018-Jun-19 08:00N 34°24' E 135°01'714.3
2018-Jun-19 07:30N 34°30' E 135°05'4 8.2
2018-Jun-19 07:00N 34°34' E 135°07'611.7
2018-Jun-19 06:30N 34°37' E 135°01'713.5
2018-Jun-19 06:00N 34°35' E 134°53'612.5
2018-Jun-19 05:30N 34°32' E 134°46'612.2
2018-Jun-19 05:00N 34°30' E 134°39'714.1
2018-Jun-19 04:30N 34°27' E 134°31'714.0
2018-Jun-19 04:01N 34°24' E 134°24'713.6
2018-Jun-19 03:30N 34°23' E 134°15'  
2018-Jun-14 22:33N 34°25' E 134°21'0 9.6
2018-Jun-14 22:30N 34°25' E 134°22'5 9.8
2018-Jun-14 21:56N 34°27' E 134°28'4 8.4
2018-Jun-14 21:31N 34°28' E 134°32'3 6.6
2018-Jun-14 21:00N 34°30' E 134°36'4 8.1
2018-Jun-14 20:31N 34°31' E 134°40'611.1
2018-Jun-14 19:57N 34°33' E 134°47'511.4
2018-Jun-14 19:30N 34°35' E 134°53'510.8
2018-Jun-14 19:00N 34°37' E 134°59'4 8.6
2018-Jun-14 18:31N 34°36' E 135°04'4 7.5
2018-Jun-14 18:01N 34°34' E 135°07'5 9.3
2018-Jun-14 17:30N 34°29' E 135°06'612.2
2018-Jun-14 17:01N 34°24' E 135°03'612.0
2018-Jun-14 16:31N 34°18' E 134°60'611.6
2018-Jun-14 16:01N 34°12' E 134°59'5 9.7
2018-Jun-14 15:31N 34°08' E 134°59'510.7
2018-Jun-14 15:01N 34°02' E 134°59'2 4.4
2018-Jun-14 14:30N 34°00' E 134°59'2 4.8
2018-Jun-14 14:00N 33°58' E 134°58'4 8.3
2018-Jun-14 13:31N 33°54' E 134°58'4 8.5
2018-Jun-14 13:01N 33°49' E 134°58'5 9.0
2018-Jun-14 12:28N 33°45' E 134°58'5 9.0
2018-Jun-14 11:58N 33°40' E 134°58'  

Dump ship's entire track history